sensor_id;sensor_type;location;lat;lon;timestamp;temperature;humidity
31725;DHT22;18306;40.960;14.836;2024-02-23T00:02:15;11.30;80.90
31725;DHT22;18306;40.960;14.836;2024-02-23T00:04:42;11.30;81.10
31725;DHT22;18306;40.960;14.836;2024-02-23T00:07:10;11.30;81.00
31725;DHT22;18306;40.960;14.836;2024-02-23T00:09:37;11.30;80.90
31725;DHT22;18306;40.960;14.836;2024-02-23T00:12:04;11.30;81.10
31725;DHT22;18306;40.960;14.836;2024-02-23T00:14:32;11.40;81.00
31725;DHT22;18306;40.960;14.836;2024-02-23T00:16:59;11.40;80.60
31725;DHT22;18306;40.960;14.836;2024-02-23T00:19:29;11.40;80.30
31725;DHT22;18306;40.960;14.836;2024-02-23T00:21:56;11.40;80.30
31725;DHT22;18306;40.960;14.836;2024-02-23T00:24:26;11.40;80.40
31725;DHT22;18306;40.960;14.836;2024-02-23T00:26:53;11.40;80.40
31725;DHT22;18306;40.960;14.836;2024-02-23T00:29:20;11.30;80.80
31725;DHT22;18306;40.960;14.836;2024-02-23T00:31:48;11.40;80.90
31725;DHT22;18306;40.960;14.836;2024-02-23T00:34:15;11.50;80.30
31725;DHT22;18306;40.960;14.836;2024-02-23T00:36:43;11.50;80.20
31725;DHT22;18306;40.960;14.836;2024-02-23T00:39:12;11.60;80.00
31725;DHT22;18306;40.960;14.836;2024-02-23T00:41:40;11.60;79.90
31725;DHT22;18306;40.960;14.836;2024-02-23T00:44:07;11.50;80.20
31725;DHT22;18306;40.960;14.836;2024-02-23T00:46:35;11.40;80.30
31725;DHT22;18306;40.960;14.836;2024-02-23T00:49:11;11.40;80.30
31725;DHT22;18306;40.960;14.836;2024-02-23T00:51:37;11.50;80.40
31725;DHT22;18306;40.960;14.836;2024-02-23T00:54:05;11.50;80.20
31725;DHT22;18306;40.960;14.836;2024-02-23T00:56:33;11.50;80.10
31725;DHT22;18306;40.960;14.836;2024-02-23T00:59:00;11.50;79.70
31725;DHT22;18306;40.960;14.836;2024-02-23T01:01:27;11.50;79.90
31725;DHT22;18306;40.960;14.836;2024-02-23T01:03:55;11.50;80.40
31725;DHT22;18306;40.960;14.836;2024-02-23T01:06:23;11.50;80.00
31725;DHT22;18306;40.960;14.836;2024-02-23T01:08:50;11.50;79.70
31725;DHT22;18306;40.960;14.836;2024-02-23T01:11:17;11.50;79.40
31725;DHT22;18306;40.960;14.836;2024-02-23T01:13:44;11.50;79.30
31725;DHT22;18306;40.960;14.836;2024-02-23T01:16:12;11.40;79.70
31725;DHT22;18306;40.960;14.836;2024-02-23T01:18:38;11.60;79.40
31725;DHT22;18306;40.960;14.836;2024-02-23T01:21:06;11.50;79.60
31725;DHT22;18306;40.960;14.836;2024-02-23T01:23:33;11.50;79.80
31725;DHT22;18306;40.960;14.836;2024-02-23T01:26:00;11.40;80.40
31725;DHT22;18306;40.960;14.836;2024-02-23T01:28:29;11.40;80.60
31725;DHT22;18306;40.960;14.836;2024-02-23T01:30:56;11.40;80.70
31725;DHT22;18306;40.960;14.836;2024-02-23T01:33:23;11.40;80.30
31725;DHT22;18306;40.960;14.836;2024-02-23T01:35:50;11.40;80.30
31725;DHT22;18306;40.960;14.836;2024-02-23T01:38:17;11.40;80.20
31725;DHT22;18306;40.960;14.836;2024-02-23T01:40:47;11.40;80.20
31725;DHT22;18306;40.960;14.836;2024-02-23T01:43:14;11.50;79.80
31725;DHT22;18306;40.960;14.836;2024-02-23T01:45:41;11.50;79.90
31725;DHT22;18306;40.960;14.836;2024-02-23T01:48:08;11.50;80.00
31725;DHT22;18306;40.960;14.836;2024-02-23T01:50:36;11.40;80.60
31725;DHT22;18306;40.960;14.836;2024-02-23T01:53:03;11.40;80.80
31725;DHT22;18306;40.960;14.836;2024-02-23T01:55:31;11.50;81.10
31725;DHT22;18306;40.960;14.836;2024-02-23T01:58:00;11.40;81.70
31725;DHT22;18306;40.960;14.836;2024-02-23T02:00:27;11.40;82.10
31725;DHT22;18306;40.960;14.836;2024-02-23T02:02:56;11.50;81.80
31725;DHT22;18306;40.960;14.836;2024-02-23T02:05:23;11.50;82.00
31725;DHT22;18306;40.960;14.836;2024-02-23T02:07:51;11.60;81.70
31725;DHT22;18306;40.960;14.836;2024-02-23T02:10:20;11.60;81.60
31725;DHT22;18306;40.960;14.836;2024-02-23T02:12:49;11.70;81.60
31725;DHT22;18306;40.960;14.836;2024-02-23T02:15:17;11.70;81.60
31725;DHT22;18306;40.960;14.836;2024-02-23T02:17:44;11.70;81.60
31725;DHT22;18306;40.960;14.836;2024-02-23T02:20:12;11.70;81.30
31725;DHT22;18306;40.960;14.836;2024-02-23T02:22:43;11.70;81.20
31725;DHT22;18306;40.960;14.836;2024-02-23T02:25:10;11.60;81.50
31725;DHT22;18306;40.960;14.836;2024-02-23T02:27:37;11.60;81.30
31725;DHT22;18306;40.960;14.836;2024-02-23T02:30:04;11.70;80.90
31725;DHT22;18306;40.960;14.836;2024-02-23T02:32:31;11.70;81.10
31725;DHT22;18306;40.960;14.836;2024-02-23T02:34:58;11.70;81.60
31725;DHT22;18306;40.960;14.836;2024-02-23T02:37:25;11.70;81.60
31725;DHT22;18306;40.960;14.836;2024-02-23T02:39:52;11.80;81.30
31725;DHT22;18306;40.960;14.836;2024-02-23T02:42:20;11.80;81.40
31725;DHT22;18306;40.960;14.836;2024-02-23T02:44:46;11.70;81.80
31725;DHT22;18306;40.960;14.836;2024-02-23T02:47:13;11.70;82.20
31725;DHT22;18306;40.960;14.836;2024-02-23T02:49:41;11.60;82.60
31725;DHT22;18306;40.960;14.836;2024-02-23T02:52:08;11.60;83.00
31725;DHT22;18306;40.960;14.836;2024-02-23T02:54:35;11.70;82.80
31725;DHT22;18306;40.960;14.836;2024-02-23T02:57:02;11.70;82.40
31725;DHT22;18306;40.960;14.836;2024-02-23T02:59:29;11.70;82.50
31725;DHT22;18306;40.960;14.836;2024-02-23T03:01:56;11.70;82.50
31725;DHT22;18306;40.960;14.836;2024-02-23T03:04:23;11.60;82.30
31725;DHT22;18306;40.960;14.836;2024-02-23T03:06:50;11.70;82.20
31725;DHT22;18306;40.960;14.836;2024-02-23T03:09:17;11.70;82.00
31725;DHT22;18306;40.960;14.836;2024-02-23T03:11:44;11.70;82.40
31725;DHT22;18306;40.960;14.836;2024-02-23T03:14:11;11.70;82.10
31725;DHT22;18306;40.960;14.836;2024-02-23T03:16:39;11.70;82.20
31725;DHT22;18306;40.960;14.836;2024-02-23T03:19:06;11.70;82.10
31725;DHT22;18306;40.960;14.836;2024-02-23T03:21:34;11.70;82.00
31725;DHT22;18306;40.960;14.836;2024-02-23T03:24:01;11.70;82.70
31725;DHT22;18306;40.960;14.836;2024-02-23T03:26:29;11.70;82.60
31725;DHT22;18306;40.960;14.836;2024-02-23T03:28:56;11.80;82.10
31725;DHT22;18306;40.960;14.836;2024-02-23T03:31:23;11.80;82.50
31725;DHT22;18306;40.960;14.836;2024-02-23T03:33:50;11.70;82.50
31725;DHT22;18306;40.960;14.836;2024-02-23T03:36:17;11.70;82.80
31725;DHT22;18306;40.960;14.836;2024-02-23T03:38:44;11.70;82.80
31725;DHT22;18306;40.960;14.836;2024-02-23T03:41:11;11.70;82.90
31725;DHT22;18306;40.960;14.836;2024-02-23T03:43:38;11.70;83.10
31725;DHT22;18306;40.960;14.836;2024-02-23T03:46:06;11.70;83.40
31725;DHT22;18306;40.960;14.836;2024-02-23T03:48:33;11.70;83.00
31725;DHT22;18306;40.960;14.836;2024-02-23T03:51:01;11.70;82.70
31725;DHT22;18306;40.960;14.836;2024-02-23T03:53:29;11.80;82.30
31725;DHT22;18306;40.960;14.836;2024-02-23T03:55:59;11.80;82.40
31725;DHT22;18306;40.960;14.836;2024-02-23T03:58:26;11.80;82.40
31725;DHT22;18306;40.960;14.836;2024-02-23T04:00:53;11.80;82.80
31725;DHT22;18306;40.960;14.836;2024-02-23T04:03:20;11.80;82.70
31725;DHT22;18306;40.960;14.836;2024-02-23T04:05:47;11.80;82.90
31725;DHT22;18306;40.960;14.836;2024-02-23T04:08:14;11.80;83.00
31725;DHT22;18306;40.960;14.836;2024-02-23T04:10:41;11.70;82.60
31725;DHT22;18306;40.960;14.836;2024-02-23T04:13:08;11.70;82.80
31725;DHT22;18306;40.960;14.836;2024-02-23T04:15:37;11.80;82.50
31725;DHT22;18306;40.960;14.836;2024-02-23T04:18:04;11.80;82.50
31725;DHT22;18306;40.960;14.836;2024-02-23T04:20:31;11.80;82.70
31725;DHT22;18306;40.960;14.836;2024-02-23T04:22:59;11.80;82.40
31725;DHT22;18306;40.960;14.836;2024-02-23T04:25:26;11.80;82.10
31725;DHT22;18306;40.960;14.836;2024-02-23T04:27:53;11.80;81.90
31725;DHT22;18306;40.960;14.836;2024-02-23T04:30:20;11.80;81.60
31725;DHT22;18306;40.960;14.836;2024-02-23T04:32:47;11.90;81.30
31725;DHT22;18306;40.960;14.836;2024-02-23T04:35:15;11.80;81.40
31725;DHT22;18306;40.960;14.836;2024-02-23T04:37:45;11.80;81.50
31725;DHT22;18306;40.960;14.836;2024-02-23T04:40:12;11.80;81.40
31725;DHT22;18306;40.960;14.836;2024-02-23T04:42:39;11.90;80.60
31725;DHT22;18306;40.960;14.836;2024-02-23T04:45:06;11.90;80.60
31725;DHT22;18306;40.960;14.836;2024-02-23T04:47:34;11.90;80.40
31725;DHT22;18306;40.960;14.836;2024-02-23T04:50:01;11.90;80.30
31725;DHT22;18306;40.960;14.836;2024-02-23T04:52:29;12.00;79.80
31725;DHT22;18306;40.960;14.836;2024-02-23T04:54:56;11.90;79.80
31725;DHT22;18306;40.960;14.836;2024-02-23T04:57:23;11.90;79.50
31725;DHT22;18306;40.960;14.836;2024-02-23T04:59:50;12.00;79.50
31725;DHT22;18306;40.960;14.836;2024-02-23T05:02:17;12.00;79.00
31725;DHT22;18306;40.960;14.836;2024-02-23T05:04:45;11.90;79.00
31725;DHT22;18306;40.960;14.836;2024-02-23T05:07:13;11.90;79.80
31725;DHT22;18306;40.960;14.836;2024-02-23T05:09:40;11.90;79.90
31725;DHT22;18306;40.960;14.836;2024-02-23T05:12:08;11.90;80.10
31725;DHT22;18306;40.960;14.836;2024-02-23T05:14:35;12.00;80.10
31725;DHT22;18306;40.960;14.836;2024-02-23T05:17:02;12.00;80.20
31725;DHT22;18306;40.960;14.836;2024-02-23T05:19:30;12.00;80.70
31725;DHT22;18306;40.960;14.836;2024-02-23T05:21:57;11.90;80.50
31725;DHT22;18306;40.960;14.836;2024-02-23T05:24:24;11.90;80.30
31725;DHT22;18306;40.960;14.836;2024-02-23T05:26:52;11.90;80.80
31725;DHT22;18306;40.960;14.836;2024-02-23T05:29:19;11.80;81.10
31725;DHT22;18306;40.960;14.836;2024-02-23T05:31:51;11.80;80.50
31725;DHT22;18306;40.960;14.836;2024-02-23T05:34:18;11.90;79.90
31725;DHT22;18306;40.960;14.836;2024-02-23T05:36:46;11.90;79.90
31725;DHT22;18306;40.960;14.836;2024-02-23T05:39:14;11.90;80.10
31725;DHT22;18306;40.960;14.836;2024-02-23T05:41:44;11.80;80.50
31725;DHT22;18306;40.960;14.836;2024-02-23T05:44:11;11.80;80.80
31725;DHT22;18306;40.960;14.836;2024-02-23T05:46:39;11.90;80.80
31725;DHT22;18306;40.960;14.836;2024-02-23T05:49:15;11.90;80.90
31725;DHT22;18306;40.960;14.836;2024-02-23T05:51:49;11.80;81.00
31725;DHT22;18306;40.960;14.836;2024-02-23T05:54:30;11.80;81.00
31725;DHT22;18306;40.960;14.836;2024-02-23T05:57:17;11.80;80.90
31725;DHT22;18306;40.960;14.836;2024-02-23T05:59:54;11.80;80.80
31725;DHT22;18306;40.960;14.836;2024-02-23T06:02:30;11.80;80.80
31725;DHT22;18306;40.960;14.836;2024-02-23T06:05:07;11.80;80.30
31725;DHT22;18306;40.960;14.836;2024-02-23T06:07:43;11.80;80.10
31725;DHT22;18306;40.960;14.836;2024-02-23T06:10:26;11.90;80.10
31725;DHT22;18306;40.960;14.836;2024-02-23T06:13:02;11.90;80.20
31725;DHT22;18306;40.960;14.836;2024-02-23T06:15:41;11.90;80.40
31725;DHT22;18306;40.960;14.836;2024-02-23T06:18:18;11.90;80.30
31725;DHT22;18306;40.960;14.836;2024-02-23T06:20:54;11.90;79.60
31725;DHT22;18306;40.960;14.836;2024-02-23T06:23:30;12.00;79.00
31725;DHT22;18306;40.960;14.836;2024-02-23T06:26:05;12.00;78.60
31725;DHT22;18306;40.960;14.836;2024-02-23T06:28:36;12.00;78.20
31725;DHT22;18306;40.960;14.836;2024-02-23T06:31:18;12.00;78.40
31725;DHT22;18306;40.960;14.836;2024-02-23T06:33:57;12.00;78.40
31725;DHT22;18306;40.960;14.836;2024-02-23T06:36:32;12.00;78.70
31725;DHT22;18306;40.960;14.836;2024-02-23T06:39:01;12.00;78.50
31725;DHT22;18306;40.960;14.836;2024-02-23T06:41:37;12.00;78.80
31725;DHT22;18306;40.960;14.836;2024-02-23T06:44:18;12.00;79.00
31725;DHT22;18306;40.960;14.836;2024-02-23T06:46:51;12.00;79.10
31725;DHT22;18306;40.960;14.836;2024-02-23T06:49:27;12.00;79.40
31725;DHT22;18306;40.960;14.836;2024-02-23T06:52:07;12.00;79.60
31725;DHT22;18306;40.960;14.836;2024-02-23T06:54:42;12.10;79.30
31725;DHT22;18306;40.960;14.836;2024-02-23T06:57:20;12.10;78.90
31725;DHT22;18306;40.960;14.836;2024-02-23T07:00:01;12.10;78.60
31725;DHT22;18306;40.960;14.836;2024-02-23T07:02:35;12.10;78.40
31725;DHT22;18306;40.960;14.836;2024-02-23T07:05:12;12.10;78.00
31725;DHT22;18306;40.960;14.836;2024-02-23T07:07:50;12.10;78.00
31725;DHT22;18306;40.960;14.836;2024-02-23T07:10:33;12.10;78.20
31725;DHT22;18306;40.960;14.836;2024-02-23T07:13:01;12.20;78.40
31725;DHT22;18306;40.960;14.836;2024-02-23T07:15:39;12.10;78.20
31725;DHT22;18306;40.960;14.836;2024-02-23T07:18:08;12.20;78.10
31725;DHT22;18306;40.960;14.836;2024-02-23T07:20:45;12.20;78.30
31725;DHT22;18306;40.960;14.836;2024-02-23T07:23:23;12.20;78.10
31725;DHT22;18306;40.960;14.836;2024-02-23T07:25:55;12.20;77.80
31725;DHT22;18306;40.960;14.836;2024-02-23T07:28:25;12.30;78.20
31725;DHT22;18306;40.960;14.836;2024-02-23T07:31:00;12.30;78.40
31725;DHT22;18306;40.960;14.836;2024-02-23T07:33:33;12.30;78.80
31725;DHT22;18306;40.960;14.836;2024-02-23T07:36:17;12.30;79.10
31725;DHT22;18306;40.960;14.836;2024-02-23T07:38:50;12.20;79.60
31725;DHT22;18306;40.960;14.836;2024-02-23T07:41:18;12.30;79.50
31725;DHT22;18306;40.960;14.836;2024-02-23T07:43:53;12.30;79.70
31725;DHT22;18306;40.960;14.836;2024-02-23T07:46:30;12.30;79.70
31725;DHT22;18306;40.960;14.836;2024-02-23T07:49:04;12.30;79.70
31725;DHT22;18306;40.960;14.836;2024-02-23T07:51:36;12.40;79.70
31725;DHT22;18306;40.960;14.836;2024-02-23T07:54:11;12.40;79.40
31725;DHT22;18306;40.960;14.836;2024-02-23T07:56:43;12.40;78.50
31725;DHT22;18306;40.960;14.836;2024-02-23T07:59:25;12.40;78.30
31725;DHT22;18306;40.960;14.836;2024-02-23T08:02:03;12.40;78.40
31725;DHT22;18306;40.960;14.836;2024-02-23T08:04:42;12.40;77.60
31725;DHT22;18306;40.960;14.836;2024-02-23T08:07:14;12.50;77.20
31725;DHT22;18306;40.960;14.836;2024-02-23T08:09:48;12.60;77.30
31725;DHT22;18306;40.960;14.836;2024-02-23T08:12:17;12.50;77.50
31725;DHT22;18306;40.960;14.836;2024-02-23T08:14:53;12.50;77.30
31725;DHT22;18306;40.960;14.836;2024-02-23T08:17:27;12.50;77.60
31725;DHT22;18306;40.960;14.836;2024-02-23T08:20:00;12.60;77.50
31725;DHT22;18306;40.960;14.836;2024-02-23T08:23:07;12.60;77.70
31725;DHT22;18306;40.960;14.836;2024-02-23T08:25:59;12.60;77.70
31725;DHT22;18306;40.960;14.836;2024-02-23T08:28:31;12.60;77.80
31725;DHT22;18306;40.960;14.836;2024-02-23T08:31:03;12.50;77.30
31725;DHT22;18306;40.960;14.836;2024-02-23T08:33:33;12.50;76.90
31725;DHT22;18306;40.960;14.836;2024-02-23T08:36:00;12.60;76.90
31725;DHT22;18306;40.960;14.836;2024-02-23T08:38:28;12.60;76.90
31725;DHT22;18306;40.960;14.836;2024-02-23T08:40:54;12.60;75.90
31725;DHT22;18306;40.960;14.836;2024-02-23T08:43:21;12.60;75.90
31725;DHT22;18306;40.960;14.836;2024-02-23T08:45:49;12.50;76.00
31725;DHT22;18306;40.960;14.836;2024-02-23T08:48:16;12.50;76.30
31725;DHT22;18306;40.960;14.836;2024-02-23T08:50:43;12.60;76.40
31725;DHT22;18306;40.960;14.836;2024-02-23T08:53:12;12.60;76.50
31725;DHT22;18306;40.960;14.836;2024-02-23T08:55:39;12.60;76.90
31725;DHT22;18306;40.960;14.836;2024-02-23T08:58:10;12.60;76.60
31725;DHT22;18306;40.960;14.836;2024-02-23T09:00:40;12.70;76.30
31725;DHT22;18306;40.960;14.836;2024-02-23T09:03:07;12.70;76.20
31725;DHT22;18306;40.960;14.836;2024-02-23T09:05:34;12.70;76.50
31725;DHT22;18306;40.960;14.836;2024-02-23T09:08:01;12.70;77.20
31725;DHT22;18306;40.960;14.836;2024-02-23T09:10:29;12.70;76.90
31725;DHT22;18306;40.960;14.836;2024-02-23T09:12:56;12.70;76.60
31725;DHT22;18306;40.960;14.836;2024-02-23T09:15:23;12.80;76.40
31725;DHT22;18306;40.960;14.836;2024-02-23T09:17:50;12.80;75.60
31725;DHT22;18306;40.960;14.836;2024-02-23T09:20:17;12.80;75.20
31725;DHT22;18306;40.960;14.836;2024-02-23T09:22:45;12.90;74.90
31725;DHT22;18306;40.960;14.836;2024-02-23T09:25:12;12.90;75.10
31725;DHT22;18306;40.960;14.836;2024-02-23T09:27:40;13.00;75.20
31725;DHT22;18306;40.960;14.836;2024-02-23T09:30:13;13.00;74.30
31725;DHT22;18306;40.960;14.836;2024-02-23T09:32:41;13.00;74.50
31725;DHT22;18306;40.960;14.836;2024-02-23T09:35:09;13.00;75.10
31725;DHT22;18306;40.960;14.836;2024-02-23T09:37:37;12.90;75.40
31725;DHT22;18306;40.960;14.836;2024-02-23T09:40:05;13.00;74.40
31725;DHT22;18306;40.960;14.836;2024-02-23T09:42:34;13.00;74.10
31725;DHT22;18306;40.960;14.836;2024-02-23T09:45:02;13.10;73.60
31725;DHT22;18306;40.960;14.836;2024-02-23T09:47:31;13.00;73.70
31725;DHT22;18306;40.960;14.836;2024-02-23T09:50:03;13.00;74.10
31725;DHT22;18306;40.960;14.836;2024-02-23T09:52:32;13.00;74.00
31725;DHT22;18306;40.960;14.836;2024-02-23T09:54:59;13.00;74.00
31725;DHT22;18306;40.960;14.836;2024-02-23T09:57:28;13.10;74.00
31725;DHT22;18306;40.960;14.836;2024-02-23T09:59:55;13.20;73.60
31725;DHT22;18306;40.960;14.836;2024-02-23T10:02:24;13.20;73.60
31725;DHT22;18306;40.960;14.836;2024-02-23T10:04:54;13.30;73.10
31725;DHT22;18306;40.960;14.836;2024-02-23T10:07:23;13.40;72.50
31725;DHT22;18306;40.960;14.836;2024-02-23T10:09:53;13.40;72.00
31725;DHT22;18306;40.960;14.836;2024-02-23T10:12:22;13.50;71.40
31725;DHT22;18306;40.960;14.836;2024-02-23T10:14:49;13.60;69.50
31725;DHT22;18306;40.960;14.836;2024-02-23T10:17:16;13.60;68.60
31725;DHT22;18306;40.960;14.836;2024-02-23T10:19:44;13.60;69.60
31725;DHT22;18306;40.960;14.836;2024-02-23T10:22:11;13.70;69.80
31725;DHT22;18306;40.960;14.836;2024-02-23T10:24:39;13.90;67.60
31725;DHT22;18306;40.960;14.836;2024-02-23T10:27:06;13.90;66.30
31725;DHT22;18306;40.960;14.836;2024-02-23T10:29:33;13.90;67.00
31725;DHT22;18306;40.960;14.836;2024-02-23T10:32:14;14.00;68.00
31725;DHT22;18306;40.960;14.836;2024-02-23T10:34:48;14.20;67.20
31725;DHT22;18306;40.960;14.836;2024-02-23T10:37:18;14.30;66.90
31725;DHT22;18306;40.960;14.836;2024-02-23T10:39:46;14.30;67.10
31725;DHT22;18306;40.960;14.836;2024-02-23T10:42:18;14.30;67.30
31725;DHT22;18306;40.960;14.836;2024-02-23T10:44:52;14.30;67.60
31725;DHT22;18306;40.960;14.836;2024-02-23T10:47:20;14.40;67.40
31725;DHT22;18306;40.960;14.836;2024-02-23T10:49:48;14.30;66.70
31725;DHT22;18306;40.960;14.836;2024-02-23T10:52:16;14.40;67.00
31725;DHT22;18306;40.960;14.836;2024-02-23T10:54:46;14.50;66.50
31725;DHT22;18306;40.960;14.836;2024-02-23T10:57:13;14.60;65.70
31725;DHT22;18306;40.960;14.836;2024-02-23T10:59:41;14.60;65.30
31725;DHT22;18306;40.960;14.836;2024-02-23T11:02:10;14.60;64.70
31725;DHT22;18306;40.960;14.836;2024-02-23T11:04:38;14.60;63.60
31725;DHT22;18306;40.960;14.836;2024-02-23T11:07:13;14.60;63.50
31725;DHT22;18306;40.960;14.836;2024-02-23T11:09:40;14.70;63.30
31725;DHT22;18306;40.960;14.836;2024-02-23T11:12:10;14.70;63.70
31725;DHT22;18306;40.960;14.836;2024-02-23T11:14:38;14.70;63.40
31725;DHT22;18306;40.960;14.836;2024-02-23T11:17:06;14.70;62.70
31725;DHT22;18306;40.960;14.836;2024-02-23T11:19:38;14.80;62.70
31725;DHT22;18306;40.960;14.836;2024-02-23T11:22:09;14.60;62.70
31725;DHT22;18306;40.960;14.836;2024-02-23T11:24:42;14.60;63.30
31725;DHT22;18306;40.960;14.836;2024-02-23T11:27:16;14.60;63.00
31725;DHT22;18306;40.960;14.836;2024-02-23T11:29:48;14.70;63.50
31725;DHT22;18306;40.960;14.836;2024-02-23T11:32:37;14.70;62.30
31725;DHT22;18306;40.960;14.836;2024-02-23T11:35:10;14.70;62.70
31725;DHT22;18306;40.960;14.836;2024-02-23T11:37:53;14.70;63.30
31725;DHT22;18306;40.960;14.836;2024-02-23T11:40:27;14.80;61.10
31725;DHT22;18306;40.960;14.836;2024-02-23T11:42:55;14.80;61.10
31725;DHT22;18306;40.960;14.836;2024-02-23T11:45:23;14.90;61.20
31725;DHT22;18306;40.960;14.836;2024-02-23T11:47:53;14.90;60.30
31725;DHT22;18306;40.960;14.836;2024-02-23T11:50:20;14.90;59.80
31725;DHT22;18306;40.960;14.836;2024-02-23T11:52:48;14.80;59.50
31725;DHT22;18306;40.960;14.836;2024-02-23T11:55:22;14.80;59.10
31725;DHT22;18306;40.960;14.836;2024-02-23T11:57:52;14.70;59.60
31725;DHT22;18306;40.960;14.836;2024-02-23T12:00:19;14.60;60.10
31725;DHT22;18306;40.960;14.836;2024-02-23T12:02:46;14.50;60.10
31725;DHT22;18306;40.960;14.836;2024-02-23T12:05:16;14.50;60.10
31725;DHT22;18306;40.960;14.836;2024-02-23T12:07:55;14.60;60.00
31725;DHT22;18306;40.960;14.836;2024-02-23T12:10:23;14.60;60.40
31725;DHT22;18306;40.960;14.836;2024-02-23T12:12:54;14.70;59.60
31725;DHT22;18306;40.960;14.836;2024-02-23T12:15:21;14.80;59.10
31725;DHT22;18306;40.960;14.836;2024-02-23T12:17:51;14.80;58.50
31725;DHT22;18306;40.960;14.836;2024-02-23T12:20:19;14.80;59.40
31725;DHT22;18306;40.960;14.836;2024-02-23T12:22:47;14.80;57.90
31725;DHT22;18306;40.960;14.836;2024-02-23T12:25:15;14.70;57.90
31725;DHT22;18306;40.960;14.836;2024-02-23T12:27:43;14.60;58.50
31725;DHT22;18306;40.960;14.836;2024-02-23T12:30:15;14.60;59.20
31725;DHT22;18306;40.960;14.836;2024-02-23T12:32:42;14.60;58.90
31725;DHT22;18306;40.960;14.836;2024-02-23T12:35:14;14.60;59.30
31725;DHT22;18306;40.960;14.836;2024-02-23T12:37:43;14.60;59.50
31725;DHT22;18306;40.960;14.836;2024-02-23T12:40:12;14.60;59.80
31725;DHT22;18306;40.960;14.836;2024-02-23T12:42:39;14.60;60.00
31725;DHT22;18306;40.960;14.836;2024-02-23T12:45:06;14.50;59.90
31725;DHT22;18306;40.960;14.836;2024-02-23T12:47:35;14.50;60.70
31725;DHT22;18306;40.960;14.836;2024-02-23T12:50:06;14.40;61.70
31725;DHT22;18306;40.960;14.836;2024-02-23T12:52:35;14.50;62.20
31725;DHT22;18306;40.960;14.836;2024-02-23T12:55:02;14.50;61.60
31725;DHT22;18306;40.960;14.836;2024-02-23T12:57:29;14.40;61.50
31725;DHT22;18306;40.960;14.836;2024-02-23T12:59:56;14.40;62.10
31725;DHT22;18306;40.960;14.836;2024-02-23T13:02:23;14.40;62.30
31725;DHT22;18306;40.960;14.836;2024-02-23T13:04:50;14.40;62.20
31725;DHT22;18306;40.960;14.836;2024-02-23T13:07:17;14.40;62.20
31725;DHT22;18306;40.960;14.836;2024-02-23T13:09:44;14.40;61.60
31725;DHT22;18306;40.960;14.836;2024-02-23T13:12:12;14.50;61.50
31725;DHT22;18306;40.960;14.836;2024-02-23T13:14:39;14.40;61.60
31725;DHT22;18306;40.960;14.836;2024-02-23T13:17:07;14.50;61.60
31725;DHT22;18306;40.960;14.836;2024-02-23T13:19:34;14.40;61.50
31725;DHT22;18306;40.960;14.836;2024-02-23T13:22:01;14.40;62.80
31725;DHT22;18306;40.960;14.836;2024-02-23T13:24:28;14.40;62.40
31725;DHT22;18306;40.960;14.836;2024-02-23T13:26:55;14.40;61.20
31725;DHT22;18306;40.960;14.836;2024-02-23T13:29:22;14.30;62.20
31725;DHT22;18306;40.960;14.836;2024-02-23T13:31:49;14.30;62.90
31725;DHT22;18306;40.960;14.836;2024-02-23T13:34:16;14.40;63.00
31725;DHT22;18306;40.960;14.836;2024-02-23T13:36:44;14.40;62.90
31725;DHT22;18306;40.960;14.836;2024-02-23T13:39:11;14.40;62.80
31725;DHT22;18306;40.960;14.836;2024-02-23T13:41:39;14.30;62.70
31725;DHT22;18306;40.960;14.836;2024-02-23T13:44:06;14.30;62.60
31725;DHT22;18306;40.960;14.836;2024-02-23T13:46:38;14.30;62.70
31725;DHT22;18306;40.960;14.836;2024-02-23T13:49:07;14.20;62.10
31725;DHT22;18306;40.960;14.836;2024-02-23T13:51:35;14.10;62.00
31725;DHT22;18306;40.960;14.836;2024-02-23T13:54:02;14.10;62.40
31725;DHT22;18306;40.960;14.836;2024-02-23T13:56:31;14.00;62.70
31725;DHT22;18306;40.960;14.836;2024-02-23T13:58:58;14.00;63.10
31725;DHT22;18306;40.960;14.836;2024-02-23T14:01:25;14.00;63.40
31725;DHT22;18306;40.960;14.836;2024-02-23T14:03:53;14.00;63.60
31725;DHT22;18306;40.960;14.836;2024-02-23T14:06:21;14.00;63.70
31725;DHT22;18306;40.960;14.836;2024-02-23T14:08:47;14.00;64.00
31725;DHT22;18306;40.960;14.836;2024-02-23T14:11:15;14.00;64.20
31725;DHT22;18306;40.960;14.836;2024-02-23T14:13:42;14.00;64.70
31725;DHT22;18306;40.960;14.836;2024-02-23T14:16:11;14.00;64.80
31725;DHT22;18306;40.960;14.836;2024-02-23T14:18:41;13.90;65.20
31725;DHT22;18306;40.960;14.836;2024-02-23T14:21:11;13.90;65.40
31725;DHT22;18306;40.960;14.836;2024-02-23T14:23:40;13.90;65.80
31725;DHT22;18306;40.960;14.836;2024-02-23T14:26:09;13.90;65.20
31725;DHT22;18306;40.960;14.836;2024-02-23T14:28:39;13.90;65.30
31725;DHT22;18306;40.960;14.836;2024-02-23T14:31:09;13.90;65.30
31725;DHT22;18306;40.960;14.836;2024-02-23T14:33:36;13.90;65.90
31725;DHT22;18306;40.960;14.836;2024-02-23T14:36:04;13.90;65.80
31725;DHT22;18306;40.960;14.836;2024-02-23T14:38:38;13.90;65.40
31725;DHT22;18306;40.960;14.836;2024-02-23T14:41:07;13.90;65.80
31725;DHT22;18306;40.960;14.836;2024-02-23T14:43:36;14.00;65.60
31725;DHT22;18306;40.960;14.836;2024-02-23T14:46:04;14.00;65.40
31725;DHT22;18306;40.960;14.836;2024-02-23T14:48:39;14.00;64.80
31725;DHT22;18306;40.960;14.836;2024-02-23T14:51:08;13.90;65.10
31725;DHT22;18306;40.960;14.836;2024-02-23T14:53:36;13.90;65.50
31725;DHT22;18306;40.960;14.836;2024-02-23T14:56:04;13.80;65.30
31725;DHT22;18306;40.960;14.836;2024-02-23T14:58:36;13.80;65.70
31725;DHT22;18306;40.960;14.836;2024-02-23T15:01:03;13.70;65.60
31725;DHT22;18306;40.960;14.836;2024-02-23T15:03:31;13.70;65.80
31725;DHT22;18306;40.960;14.836;2024-02-23T15:06:30;13.60;66.00
31725;DHT22;18306;40.960;14.836;2024-02-23T15:08:58;13.60;66.10
31725;DHT22;18306;40.960;14.836;2024-02-23T15:11:28;13.60;66.40
31725;DHT22;18306;40.960;14.836;2024-02-23T15:13:55;13.60;66.90
31725;DHT22;18306;40.960;14.836;2024-02-23T15:16:28;13.60;66.90
31725;DHT22;18306;40.960;14.836;2024-02-23T15:19:06;13.70;66.70
31725;DHT22;18306;40.960;14.836;2024-02-23T15:21:40;13.70;66.40
31725;DHT22;18306;40.960;14.836;2024-02-23T15:24:09;13.70;65.60
31725;DHT22;18306;40.960;14.836;2024-02-23T15:26:37;13.70;65.90
31725;DHT22;18306;40.960;14.836;2024-02-23T15:29:04;13.60;66.00
31725;DHT22;18306;40.960;14.836;2024-02-23T15:31:35;13.60;66.00